Houston's Hourly Summary for Wednesday, May 9, 2018
Hour Temp
(f)
RH
(%)
Solar Rad.
(MJ/m2)
Rainfall
(in)
Wind
(mph)
5/9/2018 12:00 AM 70 65 0 0 0.52
5/9/2018 1:00 AM 67 74 0 0 0
5/9/2018 2:00 AM 64 89 0 0 0
5/9/2018 3:00 AM 63 92 0 0 0
5/9/2018 4:00 AM 63 96 0 0 0
5/9/2018 5:00 AM 62 99 0 0 0
5/9/2018 6:00 AM 61 99 0 0 0
5/9/2018 7:00 AM 60 99 0.04 0 0
5/9/2018 8:00 AM 64 91 0.53 0 0
5/9/2018 9:00 AM 72 72 1.2 0 0.18
5/9/2018 10:00 AM 77 57 1.92 0 3.46
5/9/2018 11:00 AM 81 45 2.34 0 4.02
5/9/2018 12:00 PM 83 36 3.1 0 4.57
5/9/2018 1:00 PM 85 31 3.42 0 5.83
5/9/2018 2:00 PM 86 27 3.47 0 5.46
5/9/2018 3:00 PM 87 23 2.87 0 5.56
5/9/2018 4:00 PM 87 19 2.33 0 5.81
5/9/2018 5:00 PM 87 20 2.26 0 5.75
5/9/2018 6:00 PM 85 28 1.68 0 7.99
5/9/2018 7:00 PM 83 33 0.93 0 6.34
5/9/2018 8:00 PM 79 40 0.17 0 5.19
5/9/2018 9:00 PM 75 52 0 0 1.71
5/9/2018 10:00 PM 72 62 0 0 0.38
5/9/2018 11:00 PM 71 71 0 0 0.63
Data Summary 74 59 26.26 0.00 2.64